createdAt,value
2023-07-05T00:08:12.023Z,99902.88
2023-07-05T00:18:14.978Z,99873.56
2023-07-05T00:28:19.488Z,99854.81
2023-07-05T00:38:23.754Z,99861.28
2023-07-05T00:48:34.343Z,99826.16
2023-07-05T00:58:37.992Z,99807.94
2023-07-05T01:08:42.323Z,99818.22
2023-07-05T01:18:53.196Z,99802.28
2023-07-05T01:29:24.940Z,99788.44
2023-07-05T01:39:29.305Z,99789.38
2023-07-05T01:49:42.911Z,99790.94
2023-07-05T01:59:56.728Z,99768.41
2023-07-05T02:10:00.825Z,99748.13
2023-07-05T02:20:06.062Z,99741.44
2023-07-05T02:30:10.660Z,99765.50
2023-07-05T02:40:15.344Z,99785.09
2023-07-05T02:50:18.761Z,99792.91
2023-07-05T03:00:23.845Z,99792.25
2023-07-05T03:10:26.791Z,99807.72
2023-07-05T03:20:31.106Z,99835.09
2023-07-05T03:30:37.297Z,99847.41
2023-07-05T03:40:42.122Z,99863.94
2023-07-05T03:50:45.408Z,99890.50
2023-07-05T04:00:49.789Z,99924.44
2023-07-05T04:10:53.050Z,99942.69
2023-07-05T04:20:58.087Z,99960.97
2023-07-05T04:31:01.574Z,99984.22
2023-07-05T04:41:06.216Z,99983.78
2023-07-05T04:51:09.629Z,99989.66
2023-07-05T05:01:15.584Z,100007.72
2023-07-05T05:11:18.777Z,100013.13
2023-07-05T05:21:23.316Z,100017.25
2023-07-05T05:31:26.210Z,100035.19
2023-07-05T05:41:30.726Z,100037.19
2023-07-05T05:51:33.713Z,100055.47
2023-07-05T06:01:38.512Z,100071.72
2023-07-05T06:11:41.686Z,100071.31
2023-07-05T06:21:46.189Z,100071.47
2023-07-05T06:31:49.157Z,100101.44
2023-07-05T06:41:53.531Z,100117.03
2023-07-05T06:51:56.834Z,100123.28
2023-07-05T07:02:02.036Z,100120.44
2023-07-05T07:12:07.892Z,100134.19
2023-07-05T07:22:13.326Z,100143.06
2023-07-05T07:32:16.927Z,100180.13
2023-07-05T07:42:21.337Z,100179.44
2023-07-05T07:52:24.522Z,100187.66
2023-07-05T08:02:28.814Z,100178.59
2023-07-05T08:12:31.982Z,100187.44
2023-07-05T08:22:36.309Z,100220.97
2023-07-05T08:32:40.016Z,100230.00
2023-07-05T08:42:57.509Z,100237.31
2023-07-05T08:53:06.646Z,100243.84
2023-07-05T09:03:13.478Z,100266.25
2023-07-05T09:13:23.290Z,100281.88
2023-07-05T09:23:35.258Z,100298.94
2023-07-05T09:33:43.321Z,100313.03
2023-07-05T09:43:47.638Z,100319.28
2023-07-05T09:53:53.662Z,100326.63
2023-07-05T10:03:59.776Z,100327.03
2023-07-05T10:14:05.709Z,100320.19
2023-07-05T10:24:14.726Z,100345.94
2023-07-05T10:34:21.811Z,100343.47
2023-07-05T10:44:32.831Z,100366.53
2023-07-05T10:54:41.662Z,100358.84
2023-07-05T11:04:51.156Z,100372.91
2023-07-05T11:14:54.853Z,100369.56
2023-07-05T11:24:59.521Z,100369.09
2023-07-05T11:35:05.032Z,100362.38
2023-07-05T11:45:25.007Z,100382.44
2023-07-05T11:55:32.730Z,100382.91
2023-07-05T12:05:37.777Z,100387.13
2023-07-05T12:15:41.817Z,100414.34
2023-07-05T12:25:51.460Z,100409.63
2023-07-05T12:36:09.272Z,100421.69
2023-07-05T12:46:17.920Z,100421.19
2023-07-05T12:56:32.208Z,100438.00
2023-07-05T13:06:37.377Z,100431.16
2023-07-05T13:16:51.988Z,100437.22
2023-07-05T13:26:57.858Z,100456.00
2023-07-05T13:37:04.152Z,100469.69
2023-07-05T13:47:09.018Z,100476.25
2023-07-05T13:57:17.125Z,100491.50
2023-07-05T14:07:21.607Z,100500.28
2023-07-05T14:17:26.482Z,100497.56
2023-07-05T14:27:31.244Z,100510.03
2023-07-05T14:37:34.609Z,100509.53
2023-07-05T14:47:39.275Z,100504.91
2023-07-05T14:57:43.600Z,100516.28
2023-07-05T15:07:48.122Z,100528.63
2023-07-05T15:17:51.347Z,100531.97
2023-07-05T15:27:56.085Z,100540.44
2023-07-05T15:37:59.123Z,100556.09
2023-07-05T15:48:04.357Z,100560.03
2023-07-05T15:58:07.506Z,100548.28
2023-07-05T16:08:12.164Z,100560.69
2023-07-05T16:18:15.172Z,100565.09
2023-07-05T16:28:19.899Z,100567.47
2023-07-05T16:38:23.761Z,100570.84
2023-07-05T16:48:28.597Z,100588.84
2023-07-05T16:58:31.831Z,100584.38
2023-07-05T17:08:38.042Z,100589.38
2023-07-05T17:18:41.080Z,100601.28
2023-07-05T17:28:46.984Z,100613.47
2023-07-05T17:38:50.798Z,100610.22
2023-07-05T17:48:57.047Z,100605.34
2023-07-05T17:59:01.445Z,100609.44
2023-07-05T18:09:06.438Z,100606.50
2023-07-05T18:19:10.296Z,100623.00
2023-07-05T18:29:15.031Z,100616.19
2023-07-05T18:39:19.200Z,100621.47
2023-07-05T18:49:23.766Z,100639.53
2023-07-05T18:59:27.887Z,100645.84
2023-07-05T19:09:32.117Z,100654.38
2023-07-05T19:19:35.492Z,100646.19
2023-07-05T19:29:40.644Z,100652.19
2023-07-05T19:39:43.853Z,100650.97
2023-07-05T19:49:48.015Z,100667.22
2023-07-05T19:59:51.067Z,100681.69
2023-07-05T20:09:55.631Z,100695.13
2023-07-05T20:19:59.450Z,100712.94
2023-07-05T20:30:04.432Z,100710.28
2023-07-05T20:40:11.367Z,100710.59
2023-07-05T20:50:16.045Z,100731.75
2023-07-05T21:00:19.915Z,100763.69
2023-07-05T21:10:25.248Z,100766.69
2023-07-05T21:20:28.475Z,100780.56
2023-07-05T21:30:34.387Z,100772.75
2023-07-05T21:40:38.060Z,100786.91
2023-07-05T21:50:47.542Z,100790.47
2023-07-05T22:00:51.491Z,100798.38
2023-07-05T22:10:56.748Z,100801.09
2023-07-05T22:20:59.996Z,100809.81
2023-07-05T22:31:04.694Z,100800.81
2023-07-05T22:41:07.620Z,100810.25
2023-07-05T22:51:12.271Z,100809.81
2023-07-05T23:01:15.359Z,100814.22
2023-07-05T23:11:20.115Z,100831.88
2023-07-05T23:21:23.301Z,100833.16
2023-07-05T23:31:29.826Z,100836.03
2023-07-05T23:41:33.607Z,100843.22
2023-07-05T23:51:38.392Z,100839.53
